Time;durP1;ratioP1;P1;durP2;ratioP2;P2;SDS_P1;SDS_P2;PMS_P1;PMS_P2;Temp;Humidity;BMP_temperature;BMP_pressure;BME280_temperature;BME280_humidity;BME280_pressure;Samples;Min_cycle;Max_cycle;Signal;HPM_P1;HPM_P2
2021/05/17 00:02:22;;;;;;;17.63;10.30;;;16.70;90.10;;;;;;5095203;28;20107;-72
2021/05/17 00:04:51;;;;;;;16.40;10.98;;;16.60;90.40;;;;;;5093888;28;20016;-72
2021/05/17 00:07:17;;;;;;;15.77;10.43;;;16.70;90.50;;;;;;5095861;28;20028;-72
2021/05/17 00:09:44;;;;;;;17.27;10.75;;;16.80;90.50;;;;;;5095004;28;20035;-72
2021/05/17 00:12:11;;;;;;;17.80;10.82;;;16.80;90.40;;;;;;5094957;28;20024;-73
2021/05/17 00:14:37;;;;;;;17.95;10.98;;;16.80;90.30;;;;;;5094118;28;20048;-72
2021/05/17 00:17:04;;;;;;;16.30;11.02;;;16.80;90.40;;;;;;5095165;28;20024;-72
2021/05/17 00:19:30;;;;;;;15.48;10.20;;;16.80;90.60;;;;;;5095032;28;20032;-72
2021/05/17 00:21:56;;;;;;;13.02;7.75;;;16.90;90.60;;;;;;5095194;28;20020;-72
2021/05/17 00:24:22;;;;;;;16.50;10.93;;;17.00;90.20;;;;;;5095425;28;20107;-72
2021/05/17 00:26:48;;;;;;;16.23;9.77;;;16.90;90.20;;;;;;5095275;28;20546;-72
2021/05/17 00:29:14;;;;;;;13.82;8.25;;;16.90;90.30;;;;;;5095032;28;20116;-72
2021/05/17 00:31:43;;;;;;;13.57;7.22;;;16.80;90.20;;;;;;5079967;28;20031;-72
2021/05/17 00:34:10;;;;;;;8.48;6.25;;;16.80;90.40;;;;;;5095234;28;20031;-72
2021/05/17 00:36:37;;;;;;;11.32;6.05;;;16.90;90.40;;;;;;5094387;28;20031;-74
2021/05/17 00:39:07;;;;;;;10.07;6.15;;;16.90;90.30;;;;;;5080908;28;20043;-72
2021/05/17 00:41:33;;;;;;;8.55;5.70;;;16.90;90.40;;;;;;5095246;28;20027;-72
2021/05/17 00:44:00;;;;;;;9.35;6.30;;;16.90;90.50;;;;;;5093346;28;20024;-72
2021/05/17 00:46:26;;;;;;;10.68;6.90;;;16.90;90.40;;;;;;5094624;28;20478;-79
2021/05/17 00:48:52;;;;;;;11.85;7.25;;;16.80;90.70;;;;;;5094539;28;20020;-72
2021/05/17 00:51:18;;;;;;;26.75;12.32;;;16.80;90.80;;;;;;5094825;28;20497;-72
2021/05/17 00:53:45;;;;;;;32.67;13.50;;;16.80;90.70;;;;;;5094086;28;20038;-72
2021/05/17 00:56:11;;;;;;;34.78;16.17;;;16.70;90.70;;;;;;5092903;28;20032;-72
2021/05/17 00:58:38;;;;;;;47.13;17.95;;;16.80;90.70;;;;;;5093739;28;20027;-72
2021/05/17 01:01:05;;;;;;;83.63;31.92;;;16.70;90.70;;;;;;5093818;28;20552;-71
2021/05/17 01:03:32;;;;;;;92.45;35.30;;;16.70;91.00;;;;;;5092654;28;20097;-72
2021/05/17 01:06:00;;;;;;;108.88;36.20;;;16.60;91.20;;;;;;5093874;28;21147;-72
2021/05/17 01:08:40;;;;;;;99.45;34.88;;;16.60;91.40;;;;;;5093536;28;20027;-74
2021/05/17 01:11:06;;;;;;;32.00;13.48;;;16.60;91.70;;;;;;5093270;28;20379;-72
2021/05/17 01:13:33;;;;;;;16.10;9.32;;;16.60;91.70;;;;;;5094203;28;20035;-72
2021/05/17 01:16:00;;;;;;;13.93;9.45;;;16.60;91.80;;;;;;5093403;28;20123;-72
2021/05/17 01:18:27;;;;;;;13.80;10.30;;;16.70;91.70;;;;;;5093454;28;20464;-76
2021/05/17 01:20:55;;;;;;;16.92;11.13;;;16.60;91.80;;;;;;5092589;28;20121;-72
2021/05/17 01:25:55;;;;;;;37.17;16.83;;;16.50;92.20;;;;;;5093790;28;20428;-72
2021/05/17 01:28:23;;;;;;;41.53;19.27;;;16.40;92.50;;;;;;5093410;28;20107;-72
2021/05/17 01:30:52;;;;;;;46.83;22.55;;;16.40;93.00;;;;;;5093364;28;20626;-72
2021/05/17 01:33:18;;;;;;;45.92;20.60;;;16.30;93.20;;;;;;5093437;28;20429;-72
2021/05/17 01:35:50;;;;;;;20.48;11.70;;;16.30;93.50;;;;;;5093203;28;20034;-72
2021/05/17 01:38:17;;;;;;;16.27;10.85;;;16.40;93.60;;;;;;5091891;28;20056;-72
2021/05/17 01:40:45;;;;;;;23.92;12.32;;;16.50;93.50;;;;;;5093190;28;20032;-72
2021/05/17 01:43:12;;;;;;;14.07;9.88;;;16.40;93.40;;;;;;5093099;28;20103;-72
2021/05/17 01:45:39;;;;;;;13.30;10.00;;;16.40;93.40;;;;;;5093417;28;20378;-72
2021/05/17 01:48:05;;;;;;;16.13;10.63;;;16.40;93.60;;;;;;5093639;28;20411;-72
2021/05/17 01:50:31;;;;;;;21.55;12.05;;;16.40;93.60;;;;;;5092768;28;20377;-72
2021/05/17 01:52:58;;;;;;;16.77;12.70;;;16.30;93.80;;;;;;5093539;28;20024;-72
2021/05/17 01:55:24;;;;;;;14.73;9.05;;;16.10;94.00;;;;;;5093019;28;20039;-72
2021/05/17 01:58:11;;;;;;;9.13;6.82;;;16.00;94.30;;;;;;5092125;28;20064;-72
2021/05/17 02:00:40;;;;;;;9.45;6.22;;;16.00;94.50;;;;;;5092317;28;20070;-72
2021/05/17 02:03:07;;;;;;;11.73;6.75;;;16.00;94.80;;;;;;5093268;28;20060;-72
2021/05/17 02:05:33;;;;;;;8.68;5.18;;;16.00;94.90;;;;;;5092205;28;20035;-72
2021/05/17 02:08:01;;;;;;;8.15;5.93;;;16.10;94.80;;;;;;5093193;28;20103;-72
2021/05/17 02:10:26;;;;;;;7.90;5.88;;;16.20;94.70;;;;;;5093434;28;20473;-72
2021/05/17 02:12:52;;;;;;;9.93;6.22;;;16.10;94.80;;;;;;5093161;28;20101;-72
2021/05/17 02:15:19;;;;;;;12.23;6.30;;;16.10;95.00;;;;;;5093530;28;20040;-72
2021/05/17 02:17:45;;;;;;;9.50;6.57;;;16.20;95.10;;;;;;5091818;28;20060;-71
2021/05/17 02:20:16;;;;;;;10.40;6.97;;;16.30;95.10;;;;;;5080227;28;20374;-72
2021/05/17 02:22:46;;;;;;;11.35;7.32;;;16.30;94.90;;;;;;5098252;28;20377;-72
2021/05/17 02:25:12;;;;;;;11.35;7.82;;;16.30;94.80;;;;;;5107969;28;20031;-72
2021/05/17 02:27:42;;;;;;;12.85;7.60;;;16.20;95.00;;;;;;5121268;27;20050;-71
2021/05/17 02:30:11;;;;;;;9.68;7.70;;;16.20;95.10;;;;;;5121978;27;20031;-71
2021/05/17 02:32:37;;;;;;;11.00;6.22;;;16.20;95.20;;;;;;5121842;27;20027;-71
2021/05/17 02:35:04;;;;;;;7.68;5.78;;;16.20;95.30;;;;;;5102573;27;20070;-71
2021/05/17 02:37:32;;;;;;;7.75;5.60;;;16.10;95.20;;;;;;5122872;28;20012;-72
2021/05/17 02:39:58;;;;;;;7.38;4.70;;;16.20;95.30;;;;;;5103693;28;20057;-72
2021/05/17 02:42:27;;;;;;;7.18;4.60;;;16.10;95.10;;;;;;5099703;28;20495;-73
2021/05/17 02:44:54;;;;;;;7.72;5.35;;;16.10;95.00;;;;;;5099202;28;20028;-72
2021/05/17 02:47:19;;;;;;;6.63;4.78;;;16.10;95.00;;;;;;5099403;28;20055;-72
2021/05/17 02:49:46;;;;;;;7.53;4.88;;;16.10;95.00;;;;;;5099520;28;20052;-71
2021/05/17 02:52:12;;;;;;;6.75;4.53;;;16.10;95.00;;;;;;5098889;28;20028;-71
2021/05/17 02:54:39;;;;;;;5.50;4.47;;;16.10;94.90;;;;;;5098875;28;20106;-71
2021/05/17 02:57:08;;;;;;;5.85;4.78;;;16.10;94.90;;;;;;5097661;28;20458;-71
2021/05/17 02:59:36;;;;;;;7.30;4.70;;;16.10;94.80;;;;;;5099408;28;20032;-72
2021/05/17 03:02:07;;;;;;;5.68;4.57;;;16.10;94.80;;;;;;5098942;28;20466;-72
2021/05/17 03:04:37;;;;;;;6.90;4.90;;;16.10;94.70;;;;;;5098717;28;20414;-72
2021/05/17 03:07:14;;;;;;;7.25;4.47;;;16.10;94.60;;;;;;5099370;28;20024;-71
2021/05/17 03:09:44;;;;;;;7.03;4.55;;;16.10;94.60;;;;;;5098800;28;20336;-71
2021/05/17 03:12:10;;;;;;;7.07;4.78;;;16.10;94.60;;;;;;5097949;28;20016;-71
2021/05/17 03:14:39;;;;;;;6.55;5.18;;;16.20;94.70;;;;;;5098535;28;20048;-71
2021/05/17 03:17:06;;;;;;;10.40;6.53;;;16.20;94.70;;;;;;5099281;28;20020;-71
2021/05/17 03:19:32;;;;;;;8.90;6.10;;;16.20;94.60;;;;;;5096414;28;20032;-71
2021/05/17 03:22:00;;;;;;;7.05;5.20;;;16.20;94.60;;;;;;5087372;28;20417;-71
2021/05/17 03:24:34;;;;;;;8.82;5.38;;;16.30;94.60;;;;;;5098362;28;20104;-78
2021/05/17 03:27:11;;;;;;;7.28;4.88;;;16.30;94.60;;;;;;5097771;28;20035;-72
2021/05/17 03:29:36;;;;;;;8.48;4.78;;;16.40;94.50;;;;;;5098460;28;20494;-72
2021/05/17 03:32:02;;;;;;;7.47;5.00;;;16.40;94.40;;;;;;5097733;28;20052;-71
2021/05/17 03:34:27;;;;;;;8.23;5.38;;;16.40;94.40;;;;;;5094447;28;20032;-72
2021/05/17 03:36:53;;;;;;;7.15;4.65;;;16.40;94.40;;;;;;5095867;28;20458;-72
2021/05/17 03:39:19;;;;;;;8.77;5.28;;;16.50;94.30;;;;;;5095783;28;20089;-72
2021/05/17 03:41:44;;;;;;;8.98;4.78;;;16.50;94.30;;;;;;5094361;28;20462;-72
2021/05/17 03:44:10;;;;;;;8.25;5.70;;;16.50;94.30;;;;;;5095835;28;20367;-72
2021/05/17 03:46:36;;;;;;;8.18;5.30;;;16.60;94.40;;;;;;5094945;28;20031;-73
2021/05/17 03:49:01;;;;;;;9.88;5.35;;;16.60;94.40;;;;;;5095482;28;20043;-73
2021/05/17 03:51:27;;;;;;;8.82;5.75;;;16.70;94.60;;;;;;5096311;28;20021;-73
2021/05/17 03:53:52;;;;;;;8.88;5.95;;;16.70;94.40;;;;;;5096614;28;20374;-73
2021/05/17 03:56:18;;;;;;;7.40;5.50;;;16.70;94.20;;;;;;5098061;28;20401;-73
2021/05/17 03:58:44;;;;;;;8.02;5.88;;;16.70;94.10;;;;;;5097884;28;20464;-73
2021/05/17 04:01:09;;;;;;;12.88;6.50;;;16.80;94.10;;;;;;5097930;28;20075;-73
2021/05/17 04:03:35;;;;;;;12.55;7.05;;;16.80;94.20;;;;;;5080410;28;20023;-73
2021/05/17 04:06:48;;;;;;;7.75;5.47;;;16.80;94.40;;;;;;5093088;28;20020;-73
2021/05/17 04:14:18;;;;;;;7.22;5.32;;;16.90;93.60;;;;;;5101861;28;20043;-80
2021/05/17 04:16:43;;;;;;;7.50;5.22;;;16.90;93.60;;;;;;5097329;28;20025;-79
2021/05/17 04:19:10;;;;;;;8.43;5.70;;;16.90;93.60;;;;;;5089728;28;20040;-80
2021/05/17 04:21:36;;;;;;;8.55;6.13;;;16.80;93.50;;;;;;5120853;28;20023;-73
2021/05/17 04:24:01;;;;;;;7.45;5.40;;;16.80;93.50;;;;;;5094227;28;20028;-68
2021/05/17 04:26:27;;;;;;;7.50;5.85;;;16.70;93.60;;;;;;5092946;28;20028;-66
2021/05/17 04:28:53;;;;;;;8.85;5.22;;;16.70;93.90;;;;;;5095628;28;20024;-65
2021/05/17 04:31:18;;;;;;;8.50;5.60;;;16.70;94.10;;;;;;5091923;28;20103;-66
2021/05/17 04:33:44;;;;;;;7.35;5.47;;;16.70;94.50;;;;;;5092685;28;20095;-68
2021/05/17 04:36:10;;;;;;;7.18;5.00;;;16.70;94.20;;;;;;5092418;28;20035;-67
2021/05/17 04:38:35;;;;;;;7.60;4.90;;;16.80;94.30;;;;;;5093304;28;20024;-68
2021/05/17 04:41:01;;;;;;;6.47;4.68;;;16.90;94.20;;;;;;5090964;28;20031;-68
2021/05/17 04:43:27;;;;;;;6.95;4.68;;;17.10;94.10;;;;;;5089427;28;20025;-67
2021/05/17 04:45:52;;;;;;;5.45;4.00;;;17.20;93.70;;;;;;5085649;28;20016;-65
2021/05/17 04:48:18;;;;;;;8.38;5.00;;;17.30;93.40;;;;;;5090671;28;20386;-68
2021/05/17 04:50:43;;;;;;;10.27;4.50;;;17.40;93.10;;;;;;5093715;28;20710;-67
2021/05/17 04:53:09;;;;;;;6.18;3.90;;;17.50;92.70;;;;;;5092235;28;20119;-68
2021/05/17 04:55:35;;;;;;;5.25;3.83;;;17.70;92.30;;;;;;5093700;28;20111;-70
2021/05/17 04:58:01;;;;;;;6.25;3.60;;;17.80;92.10;;;;;;5091062;28;20028;-73
2021/05/17 05:00:26;;;;;;;5.60;3.30;;;17.90;91.70;;;;;;5090563;28;20028;-76
2021/05/17 05:02:52;;;;;;;6.97;3.72;;;18.10;91.10;;;;;;5093669;28;20034;-72
2021/05/17 05:05:18;;;;;;;5.05;3.58;;;18.20;90.60;;;;;;5093563;28;20110;-72
2021/05/17 05:07:45;;;;;;;5.78;3.70;;;18.30;90.60;;;;;;5091870;28;20016;-72
2021/05/17 05:10:10;;;;;;;6.50;4.38;;;18.50;90.20;;;;;;5093727;28;20035;-72
2021/05/17 05:12:36;;;;;;;8.60;4.30;;;18.70;89.80;;;;;;5092766;28;20478;-72
2021/05/17 05:15:03;;;;;;;6.75;3.70;;;18.90;88.40;;;;;;5091171;28;20044;-77
2021/05/17 05:17:31;;;;;;;7.45;3.90;;;18.90;87.60;;;;;;5092005;28;20032;-76
2021/05/17 05:20:11;;;;;;;5.40;3.45;;;18.90;86.90;;;;;;5085621;28;20036;-76
2021/05/17 05:22:37;;;;;;;5.22;3.85;;;18.90;86.60;;;;;;5087741;28;20056;-76
2021/05/17 05:25:04;;;;;;;8.30;4.63;;;19.00;86.50;;;;;;5078149;28;20415;-73
2021/05/17 05:27:38;;;;;;;5.70;3.92;;;19.10;86.70;;;;;;5084068;28;20032;-73
2021/05/17 05:32:32;;;;;;;6.07;3.80;;;19.40;86.60;;;;;;5084656;28;20029;-72
2021/05/17 05:34:58;;;;;;;6.13;4.43;;;19.60;85.30;;;;;;5090568;28;20020;-72
2021/05/17 05:37:23;;;;;;;4.78;3.75;;;19.70;84.20;;;;;;5073489;28;20086;-72
2021/05/17 05:39:49;;;;;;;6.10;3.70;;;19.80;83.80;;;;;;5075936;28;20044;-73
2021/05/17 05:42:15;;;;;;;6.63;3.97;;;19.90;83.40;;;;;;5086539;28;20463;-74
2021/05/17 05:44:45;;;;;;;7.60;5.00;;;19.90;82.60;;;;;;5079704;28;20382;-71
2021/05/17 05:47:16;;;;;;;5.60;4.07;;;20.00;82.60;;;;;;5087217;28;20056;-73
2021/05/17 05:49:46;;;;;;;6.20;3.80;;;20.20;82.50;;;;;;5088288;28;20034;-74
2021/05/17 05:52:13;;;;;;;6.78;4.07;;;20.30;81.80;;;;;;5090559;28;20534;-74
2021/05/17 05:54:39;;;;;;;5.10;3.70;;;20.50;81.80;;;;;;5085823;28;20021;-74
2021/05/17 05:57:09;;;;;;;6.80;4.00;;;20.70;80.80;;;;;;5087369;28;20028;-74
2021/05/17 05:59:36;;;;;;;5.82;3.83;;;20.80;79.70;;;;;;5090136;28;20028;-74
2021/05/17 06:02:04;;;;;;;7.32;4.20;;;20.70;78.80;;;;;;5090567;28;20099;-74
2021/05/17 06:04:29;;;;;;;6.53;4.00;;;20.60;78.30;;;;;;5093251;28;20031;-73
2021/05/17 06:06:55;;;;;;;7.40;4.32;;;20.40;77.90;;;;;;5106489;28;20013;-77
2021/05/17 06:09:21;;;;;;;6.72;4.10;;;20.30;78.10;;;;;;5083251;28;20060;-74
2021/05/17 06:11:47;;;;;;;7.63;4.40;;;20.10;77.80;;;;;;5084097;28;20012;-75
2021/05/17 06:14:13;;;;;;;5.65;3.58;;;20.10;78.10;;;;;;5089716;28;20123;-74
2021/05/17 06:16:39;;;;;;;7.03;3.90;;;20.10;78.50;;;;;;5092335;28;20026;-74
2021/05/17 06:19:06;;;;;;;4.85;3.50;;;20.30;79.30;;;;;;5091451;28;20373;-76
2021/05/17 06:21:32;;;;;;;6.68;3.90;;;20.60;78.80;;;;;;5085519;28;20396;-74
2021/05/17 06:23:59;;;;;;;5.65;3.60;;;21.00;78.60;;;;;;5081992;28;20051;-74
2021/05/17 06:26:26;;;;;;;7.38;3.50;;;21.40;77.90;;;;;;5085564;28;20028;-79
2021/05/17 06:28:53;;;;;;;5.47;3.50;;;21.80;76.00;;;;;;5078005;28;20111;-74
2021/05/17 06:31:20;;;;;;;6.60;3.60;;;21.90;75.20;;;;;;5078024;28;20029;-75
2021/05/17 06:33:47;;;;;;;6.32;3.20;;;22.40;75.10;;;;;;5081337;28;20036;-74
2021/05/17 06:36:14;;;;;;;5.90;3.70;;;23.00;74.70;;;;;;5081710;28;20074;-79
2021/05/17 06:38:40;;;;;;;5.97;2.90;;;23.80;74.00;;;;;;5077687;28;20028;-80
2021/05/17 06:41:10;;;;;;;4.72;3.25;;;24.70;71.10;;;;;;5085290;28;20073;-81
2021/05/17 06:43:36;;;;;;;5.32;2.90;;;25.30;67.60;;;;;;5077384;28;20382;-81
2021/05/17 06:46:08;;;;;;;6.10;3.03;;;25.70;66.10;;;;;;5091790;28;20115;-81
2021/05/17 06:48:42;;;;;;;5.22;2.83;;;26.00;63.80;;;;;;5081847;28;20026;-84
2021/05/17 06:51:15;;;;;;;4.00;2.83;;;26.20;62.00;;;;;;5078129;28;20026;-77
2021/05/17 06:53:41;;;;;;;6.68;3.50;;;26.30;62.20;;;;;;5078951;28;20028;-77
2021/05/17 06:56:13;;;;;;;5.78;3.60;;;26.40;61.40;;;;;;5083707;28;20460;-80
2021/05/17 06:58:53;;;;;;;5.13;3.45;;;26.50;60.40;;;;;;5088622;28;20111;-77
2021/05/17 07:01:20;;;;;;;5.68;3.78;;;26.60;60.10;;;;;;5088917;28;20062;-79
2021/05/17 07:03:45;;;;;;;7.18;2.85;;;26.70;59.80;;;;;;5101529;28;20170;-80
2021/05/17 07:06:16;;;;;;;6.03;3.20;;;26.70;59.10;;;;;;5084044;28;20115;-79
2021/05/17 07:13:58;;;;;;;6.28;4.03;;;25.50;59.00;;;;;;5092876;28;20019;-76
2021/05/17 07:16:23;;;;;;;6.38;3.72;;;24.90;59.90;;;;;;5093863;28;20097;-72
2021/05/17 07:18:49;;;;;;;9.88;3.92;;;24.20;61.10;;;;;;5092501;28;20024;-76
2021/05/17 07:23:41;;;;;;;11.05;5.35;;;22.80;64.60;;;;;;5095235;28;20024;-83
2021/05/17 07:26:10;;;;;;;11.40;7.07;;;22.30;66.10;;;;;;5089857;28;20020;-79
2021/05/17 07:28:38;;;;;;;9.57;5.50;;;22.00;67.60;;;;;;5088532;28;20020;-84
2021/05/17 07:31:05;;;;;;;8.38;4.90;;;21.60;68.60;;;;;;5095402;28;20078;-74
2021/05/17 07:33:32;;;;;;;8.43;4.95;;;21.30;70.00;;;;;;5095384;28;20102;-76
2021/05/17 07:35:58;;;;;;;10.27;6.57;;;20.90;71.40;;;;;;5113436;28;20042;-80
2021/05/17 07:38:29;;;;;;;10.15;6.40;;;20.50;72.40;;;;;;5112087;28;20032;-83
2021/05/17 07:40:56;;;;;;;10.00;5.93;;;20.20;73.80;;;;;;5099251;28;20047;-82
2021/05/17 07:43:21;;;;;;;8.55;5.40;;;19.90;74.80;;;;;;5094538;28;20036;-81
2021/05/17 07:45:48;;;;;;;12.80;8.18;;;19.70;75.50;;;;;;5088659;28;20035;-82
2021/05/17 07:48:15;;;;;;;12.60;7.60;;;19.40;76.80;;;;;;5094364;28;20119;-74
2021/05/17 07:50:41;;;;;;;8.32;5.88;;;19.20;78.50;;;;;;5088634;28;20036;-77
2021/05/17 07:53:06;;;;;;;8.65;6.13;;;19.10;79.50;;;;;;5083959;28;20029;-73
2021/05/17 07:55:32;;;;;;;23.25;17.05;;;18.90;81.10;;;;;;5088287;28;20509;-82
2021/05/17 07:57:58;;;;;;;20.05;15.07;;;18.70;82.60;;;;;;5094041;28;20032;-77
2021/05/17 08:00:24;;;;;;;11.80;7.55;;;18.40;84.20;;;;;;5084956;28;20047;-77
2021/05/17 08:02:50;;;;;;;17.10;11.23;;;18.30;85.80;;;;;;5094110;28;20028;-83
2021/05/17 08:05:17;;;;;;;17.42;11.48;;;18.10;87.40;;;;;;5092761;28;20470;-80
2021/05/17 08:07:43;;;;;;;14.10;11.10;;;17.90;88.60;;;;;;5092859;28;20130;-75
2021/05/17 08:10:10;;;;;;;74.35;28.15;;;17.80;90.00;;;;;;5094433;28;20501;-73
2021/05/17 08:12:37;;;;;;;51.30;22.17;;;17.70;90.50;;;;;;5090488;28;20035;-77
2021/05/17 08:15:03;;;;;;;28.42;14.48;;;17.50;91.30;;;;;;5088497;28;20048;-81
2021/05/17 08:17:30;;;;;;;14.52;9.73;;;17.40;92.00;;;;;;5089204;28;20035;-73
2021/05/17 08:19:56;;;;;;;14.60;8.93;;;17.30;92.60;;;;;;5085723;28;20109;-72
2021/05/17 08:22:22;;;;;;;11.48;8.38;;;17.30;92.90;;;;;;5090503;28;20158;-73
2021/05/17 08:24:49;;;;;;;9.52;7.57;;;17.20;93.10;;;;;;5088607;28;20032;-72
2021/05/17 08:27:14;;;;;;;10.75;7.60;;;17.10;93.50;;;;;;5086528;28;20024;-76
2021/05/17 08:29:40;;;;;;;10.02;7.22;;;17.10;93.80;;;;;;5084131;28;20356;-78
2021/05/17 08:32:10;;;;;;;9.80;7.80;;;17.20;94.10;;;;;;5080522;28;20095;-82
2021/05/17 08:34:36;;;;;;;10.32;7.63;;;17.30;94.20;;;;;;5091218;28;20115;-75
2021/05/17 08:37:03;;;;;;;10.52;7.70;;;17.40;94.10;;;;;;5093185;28;20111;-75
2021/05/17 08:39:29;;;;;;;10.38;7.65;;;17.50;94.10;;;;;;5092469;28;20036;-80
2021/05/17 08:41:59;;;;;;;9.90;7.07;;;17.60;94.10;;;;;;5084941;28;20382;-82
2021/05/17 08:44:28;;;;;;;9.60;7.90;;;17.70;94.10;;;;;;5082889;28;20059;-82
2021/05/17 08:46:54;;;;;;;10.02;7.38;;;17.80;94.20;;;;;;5084592;28;20027;-84
2021/05/17 08:49:20;;;;;;;9.07;7.40;;;17.90;94.30;;;;;;5103365;28;20498;-83
2021/05/17 08:51:47;;;;;;;10.40;7.35;;;18.10;94.20;;;;;;5086927;28;20039;-83
2021/05/17 08:54:14;;;;;;;11.10;7.63;;;18.30;94.10;;;;;;5092750;28;20024;-83
2021/05/17 08:56:43;;;;;;;9.50;7.65;;;18.60;94.10;;;;;;5093679;28;20050;-83
2021/05/17 08:59:10;;;;;;;11.40;6.97;;;18.90;94.10;;;;;;5086999;28;20146;-83
2021/05/17 09:01:36;;;;;;;11.13;7.93;;;19.30;93.60;;;;;;5080458;28;20020;-82
2021/05/17 09:04:05;;;;;;;10.60;8.35;;;19.50;92.20;;;;;;5096945;28;20032;-82
2021/05/17 09:06:49;;;;;;;11.65;8.93;;;19.60;91.10;;;;;;5094544;28;20020;-81
2021/05/17 09:09:22;;;;;;;25.80;14.45;;;19.50;90.60;;;;;;5084893;28;20131;-81
2021/05/17 09:11:50;;;;;;;28.10;15.65;;;19.40;90.40;;;;;;5107485;28;20016;-82
2021/05/17 09:14:16;;;;;;;21.98;12.80;;;19.40;90.70;;;;;;5118364;28;20042;-81
2021/05/17 09:17:08;;;;;;;22.10;13.15;;;19.50;91.00;;;;;;5118675;28;20008;-82
2021/05/17 09:19:35;;;;;;;30.30;19.23;;;19.70;90.90;;;;;;5102920;28;20044;-82
2021/05/17 09:22:14;;;;;;;23.70;14.15;;;19.80;90.90;;;;;;5098460;28;20047;-82
2021/05/17 09:24:54;;;;;;;38.30;20.10;;;20.00;91.30;;;;;;5097719;28;20077;-83
2021/05/17 09:27:21;;;;;;;88.43;38.20;;;20.50;90.60;;;;;;5097259;28;20527;-84
2021/05/17 09:29:49;;;;;;;89.28;39.63;;;20.80;89.50;;;;;;5092193;28;20525;-82
2021/05/17 09:32:18;;;;;;;43.67;21.88;;;21.00;87.60;;;;;;5092021;28;20031;-83
2021/05/17 09:35:08;;;;;;;24.13;13.95;;;21.20;85.80;;;;;;5091294;28;20039;-83
2021/05/17 09:37:46;;;;;;;16.50;10.45;;;21.50;84.40;;;;;;5092383;28;20081;-84
2021/05/17 09:40:25;;;;;;;12.65;9.75;;;21.70;83.70;;;;;;5093144;28;20032;-83
2021/05/17 09:43:08;;;;;;;14.35;10.88;;;21.90;82.40;;;;;;5092096;28;20020;-83
2021/05/17 09:45:38;;;;;;;14.00;11.15;;;22.10;80.40;;;;;;5079269;28;20020;-83
2021/05/17 09:48:29;;;;;;;12.90;8.98;;;22.20;79.40;;;;;;5092200;28;20028;-83
2021/05/17 09:51:10;;;;;;;12.27;8.80;;;22.60;78.80;;;;;;5080285;28;20040;-82
2021/05/17 09:53:40;;;;;;;15.52;12.70;;;22.90;77.70;;;;;;5092860;28;20028;-82
2021/05/17 09:56:12;;;;;;;11.65;10.35;;;23.20;77.10;;;;;;5093589;28;20016;-82
2021/05/17 09:58:41;;;;;;;9.45;8.00;;;24.10;76.70;;;;;;5091347;28;20024;-82
2021/05/17 10:01:14;;;;;;;9.65;7.68;;;24.80;74.40;;;;;;5091885;28;20032;-82
2021/05/17 10:03:45;;;;;;;9.27;7.35;;;25.50;72.50;;;;;;5093153;28;20031;-82
2021/05/17 10:06:22;;;;;;;13.10;9.23;;;26.40;70.90;;;;;;5091586;28;20025;-82
2021/05/17 10:08:49;;;;;;;14.07;11.80;;;27.10;68.10;;;;;;5092979;28;20024;-80
2021/05/17 10:11:16;;;;;;;18.38;16.38;;;27.40;66.00;;;;;;5093178;28;20020;-83
2021/05/17 10:13:43;;;;;;;21.73;18.65;;;27.50;64.10;;;;;;5090510;28;20055;-82
2021/05/17 10:16:10;;;;;;;13.95;12.40;;;27.50;63.90;;;;;;5091296;28;20044;-82
2021/05/17 10:18:38;;;;;;;10.38;8.23;;;27.90;63.10;;;;;;5092492;28;20027;-83
2021/05/17 10:21:08;;;;;;;11.73;6.85;;;28.60;61.30;;;;;;5092711;28;20028;-83
2021/05/17 10:23:36;;;;;;;8.15;6.32;;;29.10;59.30;;;;;;5091848;28;20028;-82
2021/05/17 10:26:06;;;;;;;8.43;5.65;;;29.50;58.60;;;;;;5091546;28;20497;-83
2021/05/17 10:28:32;;;;;;;8.77;6.03;;;30.00;57.20;;;;;;5078790;28;20028;-82
2021/05/17 10:31:15;;;;;;;7.45;6.35;;;30.40;56.10;;;;;;5091792;28;20055;-82
2021/05/17 10:33:43;;;;;;;13.63;12.00;;;31.00;55.60;;;;;;5092172;28;20051;-82
2021/05/17 10:36:09;;;;;;;10.73;9.63;;;31.30;53.40;;;;;;5093253;28;20028;-83
2021/05/17 10:38:44;;;;;;;10.43;8.48;;;30.90;52.50;;;;;;5092466;28;20026;-82
2021/05/17 10:46:44;;;;;;;9.73;7.35;;;30.60;54.10;;;;;;5097460;28;20114;-81
2021/05/17 10:49:25;;;;;;;9.20;7.20;;;30.30;52.60;;;;;;5096513;28;20115;-82
2021/05/17 10:51:54;;;;;;;9.68;6.32;;;29.80;52.80;;;;;;5097127;28;20105;-82
2021/05/17 10:54:31;;;;;;;8.50;6.22;;;29.50;53.40;;;;;;5112160;28;20027;-82
2021/05/17 10:57:01;;;;;;;8.88;7.03;;;29.40;54.30;;;;;;5139050;28;20051;-82
2021/05/17 11:02:15;;;;;;;7.43;5.53;;;29.90;54.20;;;;;;5120351;28;20054;-82
2021/05/17 11:04:47;;;;;;;7.88;6.00;;;29.90;53.80;;;;;;5104622;28;20358;-82
2021/05/17 11:07:17;;;;;;;9.13;6.18;;;29.90;52.90;;;;;;5102211;28;20073;-82
2021/05/17 11:09:56;;;;;;;9.23;5.15;;;29.50;52.80;;;;;;5101020;28;20020;-82
2021/05/17 11:12:28;;;;;;;9.25;5.93;;;29.10;53.90;;;;;;5099292;28;20027;-82
2021/05/17 11:15:09;;;;;;;13.90;6.97;;;28.90;54.00;;;;;;5081028;28;20040;-82
2021/05/17 11:17:56;;;;;;;9.18;6.47;;;28.40;54.80;;;;;;5096120;28;20050;-82
2021/05/17 11:20:58;;;;;;;7.78;6.60;;;28.10;55.60;;;;;;5096059;28;20040;-82
2021/05/17 11:23:43;;;;;;;7.38;6.25;;;27.80;56.00;;;;;;5053423;28;20033;-82
2021/05/17 11:26:11;;;;;;;16.10;7.18;;;27.40;55.80;;;;;;5095867;28;20024;-81
2021/05/17 11:28:36;;;;;;;10.50;7.43;;;27.10;56.60;;;;;;5096016;28;20020;-81
2021/05/17 11:34:09;;;;;;;9.85;7.22;;;26.50;57.90;;;;;;5084350;28;20032;-80
2021/05/17 11:36:50;;;;;;;9.05;7.00;;;26.20;58.90;;;;;;5110783;28;20060;-82
2021/05/17 11:39:21;;;;;;;10.93;6.82;;;26.10;59.60;;;;;;5095903;28;20088;-82
2021/05/17 11:41:53;;;;;;;18.15;14.25;;;25.90;60.00;;;;;;5095469;28;20024;-82
2021/05/17 11:44:38;;;;;;;9.73;6.88;;;25.80;60.20;;;;;;5094804;28;20076;-81
2021/05/17 11:47:04;;;;;;;;;;;25.60;60.90;;;;;;5095968;28;20016;-82
2021/05/17 11:49:32;;;;;;;9.48;6.72;;;25.30;60.80;;;;;;5094436;28;19969;-82
2021/05/17 11:52:00;;;;;;;11.32;7.40;;;25.10;62.10;;;;;;5093863;28;20466;-82
2021/05/17 11:54:33;;;;;;;9.65;7.22;;;24.90;62.30;;;;;;5093113;28;20065;-82
2021/05/17 11:57:00;;;;;;;13.35;7.35;;;24.70;62.70;;;;;;5095411;28;20032;-82
2021/05/17 11:59:27;;;;;;;11.98;7.55;;;24.60;63.20;;;;;;5095408;28;20028;-81
2021/05/17 12:01:56;;;;;;;7.50;6.63;;;24.50;63.60;;;;;;5093843;28;20021;-82
2021/05/17 12:04:33;;;;;;;9.20;6.95;;;24.30;63.70;;;;;;5110457;28;20042;-82
2021/05/17 12:07:05;;;;;;;9.07;6.93;;;24.00;64.30;;;;;;5093979;28;20269;-81
2021/05/17 12:09:41;;;;;;;9.40;7.10;;;23.80;65.30;;;;;;5094186;28;20024;-81
2021/05/17 12:12:11;;;;;;;8.68;7.03;;;23.60;66.30;;;;;;5095188;28;20043;-81
2021/05/17 12:14:39;;;;;;;9.98;8.00;;;23.40;67.10;;;;;;5094625;28;20051;-82
2021/05/17 12:17:14;;;;;;;9.10;7.30;;;23.10;67.20;;;;;;5095071;28;20089;-82
2021/05/17 12:19:43;;;;;;;9.57;7.18;;;22.90;67.60;;;;;;5110672;28;20044;-81
2021/05/17 12:22:36;;;;;;;10.07;7.72;;;22.70;68.30;;;;;;5105287;28;20024;-82
2021/05/17 12:25:04;;;;;;;11.40;9.15;;;22.50;69.70;;;;;;5085406;28;20028;-82
2021/05/17 12:27:30;;;;;;;11.05;8.85;;;22.50;70.00;;;;;;5094077;28;20054;-82
2021/05/17 12:30:07;;;;;;;11.85;9.43;;;22.40;70.90;;;;;;5093500;28;20073;-82
2021/05/17 12:32:32;;;;;;;11.93;9.95;;;22.40;71.20;;;;;;5123218;27;20485;-83
2021/05/17 12:35:01;;;;;;;10.80;9.48;;;22.50;71.50;;;;;;5097758;28;20040;-82
2021/05/17 12:37:31;;;;;;;10.98;8.98;;;22.60;71.40;;;;;;5089952;28;20020;-82
2021/05/17 12:40:18;;;;;;;11.75;10.27;;;22.70;71.30;;;;;;5104924;28;20035;-81
2021/05/17 12:42:45;;;;;;;11.65;9.85;;;22.80;71.30;;;;;;5119455;28;20016;-81
2021/05/17 12:45:13;;;;;;;12.85;9.80;;;22.80;70.50;;;;;;5120351;28;20032;-82
2021/05/17 12:47:43;;;;;;;13.05;10.57;;;22.80;70.50;;;;;;5116438;28;20016;-82
2021/05/17 12:50:24;;;;;;;13.40;10.80;;;22.90;70.30;;;;;;5102305;28;20051;-81
2021/05/17 12:53:10;;;;;;;14.02;10.45;;;23.00;70.30;;;;;;5098924;28;20035;-81
2021/05/17 12:55:51;;;;;;;10.82;9.50;;;23.10;69.90;;;;;;5098796;28;20028;-82
2021/05/17 12:58:33;;;;;;;10.85;9.50;;;23.20;69.70;;;;;;5097431;28;20020;-81
2021/05/17 13:01:07;;;;;;;13.48;9.70;;;23.40;69.50;;;;;;5092897;28;20092;-81
2021/05/17 13:03:35;;;;;;;12.70;9.05;;;23.70;69.60;;;;;;5094194;28;20412;-81
2021/05/17 13:06:19;;;;;;;11.73;7.88;;;23.80;69.70;;;;;;5092745;28;20024;-82
2021/05/17 13:08:48;;;;;;;11.15;8.38;;;23.80;68.70;;;;;;5093937;28;20024;-81
2021/05/17 13:11:16;;;;;;;13.88;9.77;;;23.90;68.10;;;;;;5093723;28;20107;-82
2021/05/17 13:13:50;;;;;;;14.48;9.25;;;23.80;68.20;;;;;;5092417;28;20085;-82
2021/05/17 13:16:19;;;;;;;13.68;10.05;;;23.70;68.80;;;;;;5093742;28;20039;-82
2021/05/17 13:18:52;;;;;;;11.38;10.18;;;23.70;68.70;;;;;;5093698;28;20039;-81
2021/05/17 13:21:26;;;;;;;11.70;10.00;;;23.60;68.70;;;;;;5092195;28;20050;-81